Time;durP1;ratioP1;P1;durP2;ratioP2;P2;SDS_P1;SDS_P2;PMS_P1;PMS_P2;Temp;Humidity;BMP_temperature;BMP_pressure;BME280_temperature;BME280_humidity;BME280_pressure;Samples;Min_cycle;Max_cycle;Signal;HPM_P1;HPM_P2
2022/11/16 00:08:19;;;;;;;12.40;6.80;;;;;;;7.25;92.85;100141.34;32054356;27;20063;-77
2022/11/16 00:23:22;;;;;;;12.83;7.03;;;;;;;7.28;93.74;100118.19;32020699;27;20055;-78
2022/11/16 00:38:24;;;;;;;10.10;5.53;;;;;;;7.39;93.71;100102.69;32006249;27;20130;-77
2022/11/16 00:53:26;;;;;;;11.03;5.80;;;;;;;7.43;94.71;100065.63;32015267;27;20138;-76
2022/11/16 01:08:28;;;;;;;11.20;5.27;;;;;;;7.51;95.43;100032.00;32018722;27;20508;-76
2022/11/16 01:23:30;;;;;;;8.40;5.60;;;;;;;7.53;96.39;100018.88;32012762;27;20053;-76
2022/11/16 01:38:33;;;;;;;12.10;5.93;;;;;;;7.54;96.47;99998.78;31982866;27;20047;-77
2022/11/16 01:53:36;;;;;;;12.13;6.87;;;;;;;7.59;97.38;99976.72;32000477;27;20054;-78
2022/11/16 02:24:04;;;;;;;13.17;4.93;;;;;;;7.53;99.66;99956.72;31979253;27;20046;-77
2022/11/16 02:39:11;;;;;;;10.47;5.10;;;;;;;7.57;99.73;99946.63;31989652;27;20045;-76
2022/11/16 02:54:18;;;;;;;13.37;5.57;;;;;;;7.57;99.38;99946.63;31976081;27;20047;-78
2022/11/16 03:09:33;;;;;;;8.83;5.03;;;;;;;7.54;99.18;99939.34;31987386;27;20507;-76
2022/11/16 03:24:35;;;;;;;13.40;6.40;;;;;;;7.67;99.22;99924.16;31990547;27;20107;-75
2022/11/16 03:39:38;;;;;;;12.53;6.53;;;;;;;7.77;99.53;99880.06;32001519;27;20051;-75
2022/11/16 03:54:40;;;;;;;15.43;6.50;;;;;;;7.82;99.15;99876.88;32013478;27;20047;-77
2022/11/16 04:25:09;;;;;;;12.20;6.20;;;;;;;7.95;99.34;99866.31;32011964;27;20081;-78
2022/11/16 04:40:11;;;;;;;10.50;6.17;;;;;;;8.03;99.73;99846.09;32003910;27;20070;-78
2022/11/16 04:55:13;;;;;;;13.87;6.67;;;;;;;8.14;99.74;99843.28;32010082;27;20046;-76
2022/11/16 05:10:15;;;;;;;11.80;7.17;;;;;;;8.17;100.00;99843.22;32013477;27;20054;-75
2022/11/16 05:25:19;;;;;;;14.03;7.47;;;;;;;8.28;100.00;99836.88;32013640;27;20049;-78
2022/11/16 05:40:21;;;;;;;16.00;8.10;;;;;;;8.24;100.00;99820.75;31996120;27;20072;-76
2022/11/16 05:55:23;;;;;;;12.13;5.50;;;;;;;8.39;100.00;99821.31;31991383;27;20484;-77
2022/11/16 06:10:25;;;;;;;14.20;5.17;;;;;;;8.43;100.00;99822.03;31993628;27;20407;-78
2022/11/16 06:25:32;;;;;;;15.40;7.57;;;;;;;8.59;100.00;99802.44;31990619;27;20103;-77
2022/11/16 06:40:34;;;;;;;16.87;8.13;;;;;;;8.72;100.00;99796.03;31990257;27;20445;-78
2022/11/16 06:55:36;;;;;;;17.87;7.97;;;;;;;8.79;100.00;99790.50;32000833;27;20103;-77
2022/11/16 07:10:38;;;;;;;15.13;7.83;;;;;;;8.93;100.00;99775.97;32000418;27;20138;-78
2022/11/16 07:25:40;;;;;;;15.27;7.60;;;;;;;9.22;100.00;99757.97;32021631;27;20453;-78
2022/11/16 07:40:44;;;;;;;12.63;6.30;;;;;;;9.54;99.45;99759.28;32036163;27;20053;-78
2022/11/16 07:55:56;;;;;;;12.43;6.70;;;;;;;9.70;98.69;99747.72;32033797;27;20051;-78
2022/11/16 08:11:02;;;;;;;15.03;6.97;;;;;;;9.84;98.61;99740.03;32015100;27;20573;-84
2022/11/16 08:26:13;;;;;;;13.87;6.27;;;;;;;10.12;98.54;99716.16;32051878;27;20046;-83
2022/11/16 08:41:16;;;;;;;10.47;6.67;;;;;;;10.38;97.73;99714.41;32123130;27;20138;-84
2022/11/16 08:56:18;;;;;;;11.80;6.40;;;;;;;10.36;98.01;99701.25;32049428;27;20182;-85
2022/11/16 09:11:22;;;;;;;9.23;5.87;;;;;;;10.41;97.58;99687.16;32044854;27;20132;-84
2022/11/16 09:26:25;;;;;;;10.10;5.67;;;;;;;10.64;96.46;99652.84;32060468;27;20051;-85
2022/11/16 09:41:52;;;;;;;21.47;7.73;;;;;;;10.72;95.91;99635.19;32047543;27;20073;-84
2022/11/16 09:56:59;;;;;;;17.97;7.30;;;;;;;10.74;96.09;99616.50;32038036;27;20099;-83
2022/11/16 10:12:20;;;;;;;21.13;9.13;;;;;;;10.68;97.41;99615.50;32038108;27;20195;-84
2022/11/16 10:27:26;;;;;;;17.43;7.67;;;;;;;10.65;98.79;99611.69;32037041;27;20121;-85
2022/11/16 10:42:38;;;;;;;11.43;5.93;;;;;;;10.43;99.02;99584.38;32036188;27;20079;-84
2022/11/16 10:58:04;;;;;;;11.23;6.63;;;;;;;10.27;98.87;99572.84;32032047;27;20449;-83
2022/11/16 11:13:12;;;;;;;12.70;6.27;;;;;;;10.21;98.87;99556.31;32017300;27;20114;-83
2022/11/16 11:28:32;;;;;;;11.43;5.70;;;;;;;10.17;99.41;99536.63;32031042;27;20079;-84
2022/11/16 11:43:37;;;;;;;10.27;6.37;;;;;;;10.15;100.00;99522.75;32023158;27;20058;-84
2022/11/16 11:58:44;;;;;;;8.60;4.60;;;;;;;10.19;99.64;99518.75;32044519;27;20053;-83
2022/11/16 12:14:07;;;;;;;14.60;6.97;;;;;;;10.15;100.00;99511.91;32099818;27;20473;-84
2022/11/16 12:30:08;;;;;;;18.30;7.27;;;;;;;10.12;100.00;99507.34;32109624;27;20059;-83
2022/11/16 12:45:32;;;;;;;12.20;5.77;;;;;;;10.08;100.00;99495.81;31987356;27;20050;-84
2022/11/16 13:01:02;;;;;;;13.10;5.97;;;;;;;10.03;100.00;99477.34;32059170;27;20122;-87
2022/11/16 13:32:55;;;;;;;12.07;5.73;;;;;;;9.88;100.00;99472.34;32064971;27;20041;-85
2022/11/16 13:48:05;;;;;;;10.63;5.67;;;;;;;9.99;100.00;99466.59;32007746;27;20084;-84
2022/11/16 14:03:58;;;;;;;7.90;4.87;;;;;;;10.07;100.00;99467.19;32002724;27;20051;-85
2022/11/16 14:19:46;;;;;;;7.83;4.53;;;;;;;10.00;100.00;99454.56;32000095;27;20238;-83
2022/11/16 14:35:17;;;;;;;;;;;;;;;9.87;100.00;99443.69;32051131;27;20519;-84
2022/11/16 14:50:26;;;;;;;10.37;5.23;;;;;;;9.64;100.00;99426.91;32062884;27;19987;-83
2022/11/16 15:05:33;;;;;;;14.43;8.00;;;;;;;9.54;100.00;99436.84;32018927;27;20524;-83
2022/11/16 15:20:38;;;;;;;11.27;6.80;;;;;;;9.59;100.00;99428.19;32018412;27;20094;-78
2022/11/16 15:52:09;;;;;;;11.67;6.17;;;;;;;9.82;100.00;99433.38;32063181;27;20058;-82
2022/11/16 16:07:42;;;;;;;12.20;7.00;;;;;;;9.78;100.00;99419.16;32057522;27;20129;-83
2022/11/16 16:22:45;;;;;;;16.10;7.37;;;;;;;9.66;100.00;99417.16;32047613;27;20054;-82
2022/11/16 16:37:48;;;;;;;14.73;6.80;;;;;;;9.55;100.00;99397.72;32078710;27;20047;-84
2022/11/16 16:52:53;;;;;;;14.67;6.80;;;;;;;9.61;100.00;99393.31;32099178;27;20054;-82
2022/11/16 17:07:56;;;;;;;17.10;8.10;;;;;;;9.54;100.00;99377.22;32060828;27;20063;-83
2022/11/16 17:23:04;;;;;;;13.83;7.50;;;;;;;9.45;100.00;99352.69;32031114;27;20134;-82
2022/11/16 17:38:08;;;;;;;15.87;7.90;;;;;;;9.40;100.00;99350.53;32033372;27;20050;-82
2022/11/16 17:53:13;;;;;;;13.10;7.37;;;;;;;9.32;100.00;99339.13;32048470;27;20528;-86
2022/11/16 18:08:15;;;;;;;18.77;7.87;;;;;;;9.22;100.00;99313.06;32053188;27;20389;-85
2022/11/16 18:23:17;;;;;;;14.87;7.60;;;;;;;9.18;100.00;99309.72;32009743;27;20111;-84
2022/11/16 18:38:22;;;;;;;19.50;8.43;;;;;;;9.15;100.00;99300.50;32009817;27;20042;-82
2022/11/16 18:53:24;;;;;;;14.70;7.17;;;;;;;9.11;100.00;99294.41;32003976;27;20051;-78
2022/11/16 19:08:29;;;;;;;20.20;6.77;;;;;;;9.16;100.00;99276.88;31998992;27;20131;-78
2022/11/16 19:23:36;;;;;;;14.33;6.50;;;;;;;9.13;100.00;99250.66;31980663;27;20412;-79
2022/11/16 19:38:44;;;;;;;12.77;5.63;;;;;;;9.10;100.00;99230.63;32010492;27;20051;-78
2022/11/16 19:53:46;;;;;;;11.17;5.93;;;;;;;9.12;100.00;99232.91;32011756;27;20054;-81
2022/11/16 20:08:59;;;;;;;9.70;5.20;;;;;;;9.13;100.00;99218.94;32012274;27;20051;-79
2022/11/16 20:24:02;;;;;;;15.90;6.40;;;;;;;9.07;100.00;99215.22;32009002;27;20078;-79
2022/11/16 20:55:25;;;;;;;14.53;6.90;;;;;;;9.43;100.00;99208.81;31669501;28;20818;-83
2022/11/16 21:10:27;;;;;;;11.07;6.77;;;;;;;9.32;100.00;99173.13;31668065;28;20113;-81
2022/11/16 21:25:29;;;;;;;15.60;8.57;;;;;;;9.26;100.00;99155.91;31660736;28;20479;-82
2022/11/16 21:40:31;;;;;;;12.97;6.77;;;;;;;9.37;100.00;99137.41;31532463;28;20056;-81
2022/11/16 21:55:33;;;;;;;23.03;8.63;;;;;;;9.45;100.00;99135.97;31433041;28;20053;-81
2022/11/16 22:10:35;;;;;;;17.23;8.40;;;;;;;9.53;100.00;99116.38;31444668;28;20068;-81
2022/11/16 22:25:40;;;;;;;15.80;8.30;;;;;;;9.54;100.00;99090.03;31426479;28;20513;-80
2022/11/16 22:40:51;;;;;;;14.60;8.17;;;;;;;9.56;100.00;99061.31;31424604;28;20092;-81
2022/11/16 22:55:53;;;;;;;17.13;9.63;;;;;;;9.59;100.00;99043.44;31427792;28;20057;-80
2022/11/16 23:57:03;;;;;;;14.77;7.97;;;;;;;9.84;100.00;99000.00;31412937;28;20041;-80
